Time;durP1;ratioP1;P1;durP2;ratioP2;P2;SDS_P1;SDS_P2;PMS_P1;PMS_P2;Temp;Humidity;BMP_temperature;BMP_pressure;BME280_temperature;BME280_humidity;BME280_pressure;Samples;Min_cycle;Max_cycle;Signal;HPM_P1;HPM_P2
2022/02/28 00:00:04;;;;;;;;;;;;;;;2.95;94.14;103370.56;5105755;28;19940;-74
2022/02/28 00:02:30;;;;;;;;;;;;;;;2.96;94.02;103363.31;5070565;28;19932;-74
2022/02/28 00:04:55;;;;;;;;;;;;;;;2.95;93.91;103373.25;5074769;28;20482;-75
2022/02/28 00:07:20;;;;;;;;;;;;;;;2.98;93.75;103369.38;5073182;28;20405;-74
2022/02/28 00:09:45;;;;;;;;;;;;;;;3.00;93.75;103376.31;5072282;28;20419;-75
2022/02/28 00:12:11;;;;;;;;;;;;;;;3.02;94.07;103371.59;5108111;28;19912;-74
2022/02/28 00:14:36;;;;;;;;;;;;;;;3.02;93.55;103370.75;5067887;28;19919;-74
2022/02/28 00:17:02;;;;;;;;;;;;;;;3.02;93.53;103376.97;5071806;28;19924;-74
2022/02/28 00:19:27;;;;;;;;;;;;;;;3.04;93.87;103371.44;5064815;28;19920;-75
2022/02/28 00:21:52;;;;;;;;;;;;;;;3.06;93.67;103372.97;5071074;28;19913;-74
2022/02/28 00:24:18;;;;;;;;;;;;;;;3.09;93.47;103364.56;5067099;28;19921;-74
2022/02/28 00:26:43;;;;;;;;;;;;;;;3.10;93.51;103363.53;5062302;28;19923;-75
2022/02/28 00:29:08;;;;;;;;;;;;;;;3.14;93.28;103363.22;5062585;28;19927;-75
2022/02/28 00:31:33;;;;;;;;;;;;;;;3.17;93.59;103365.63;5076254;28;19912;-75
2022/02/28 00:34:00;;;;;;;;;;;;;;;3.18;93.34;103353.81;5067904;28;20006;-74
2022/02/28 00:36:26;;;;;;;;;;;;;;;3.18;93.44;103353.81;5076261;28;19950;-75
2022/02/28 00:38:51;;;;;;;;;;;;;;;3.19;93.63;103347.41;5062161;28;19917;-75
2022/02/28 00:41:16;;;;;;;;;;;;;;;3.19;93.36;103344.72;5067467;28;20346;-76
2022/02/28 00:43:42;;;;;;;;;;;;;;;3.18;93.25;103337.63;5066189;28;19916;-74
2022/02/28 00:46:07;;;;;;;;;;;;;;;3.17;93.17;103335.97;5075914;28;19923;-74
2022/02/28 00:48:32;;;;;;;;;;;;;;;3.16;92.93;103339.66;5065214;28;20440;-74
2022/02/28 00:50:57;;;;;;;;;;;;;;;3.16;92.81;103329.69;5076213;28;20373;-76
2022/02/28 00:53:23;;;;;;;;;;;;;;;3.19;93.28;103337.50;5057763;28;19917;-74
2022/02/28 00:55:48;;;;;;;;;;;;;;;3.18;92.90;103343.03;5090432;28;19969;-73
2022/02/28 00:58:13;;;;;;;;;;;;;;;3.18;93.42;103343.03;5061175;28;20003;-75
2022/02/28 01:00:38;;;;;;;;;;;;;;;3.18;93.15;103349.25;5060003;28;20002;-75
2022/02/28 01:03:04;;;;;;;;;;;;;;;3.18;93.25;103343.03;5105989;28;19916;-75
2022/02/28 01:05:29;;;;;;;;;;;;;;;3.19;93.38;103347.41;5108674;28;19912;-75
2022/02/28 01:07:54;;;;;;;;;;;;;;;3.20;93.11;103351.81;5071776;28;19956;-75
2022/02/28 01:10:20;;;;;;;;;;;;;;;3.22;93.21;103357.88;5075797;28;19916;-75
2022/02/28 01:12:45;;;;;;;;;;;;;;;3.21;93.22;103353.50;5071819;28;19925;-73
2022/02/28 01:15:11;;;;;;;;;;;;;;;3.18;93.34;103353.81;5042509;28;19963;-73
2022/02/28 01:17:37;;;;;;;;;;;;;;;3.19;93.25;103342.00;5060066;28;19931;-74
2022/02/28 01:20:02;;;;;;;;;;;;;;;3.18;93.38;103346.56;5071888;28;19925;-73
2022/02/28 01:22:28;;;;;;;;;;;;;;;3.16;93.47;103350.44;5075490;28;20243;-73
2022/02/28 01:24:53;;;;;;;;;;;;;;;3.14;92.94;103341.66;5067999;28;19916;-73
2022/02/28 01:27:19;;;;;;;;;;;;;;;3.15;93.32;103346.91;5075222;28;19925;-76
2022/02/28 01:29:44;;;;;;;;;;;;;;;3.16;92.90;103335.09;5066475;28;19992;-73
2022/02/28 01:32:09;;;;;;;;;;;;;;;3.17;92.93;103342.19;5075428;28;20468;-73
2022/02/28 01:34:34;;;;;;;;;;;;;;;3.18;93.40;103337.63;5049925;28;19973;-76
2022/02/28 01:36:59;;;;;;;;;;;;;;;3.17;93.08;103339.50;5071235;28;19917;-73
2022/02/28 01:39:25;;;;;;;;;;;;;;;3.16;93.19;103340.47;5064638;28;19923;-73
2022/02/28 01:41:50;;;;;;;;;;;;;;;3.14;92.93;103341.66;5075002;28;19919;-74
2022/02/28 01:44:15;;;;;;;;;;;;;;;3.16;93.42;103351.25;5067976;28;19917;-74
2022/02/28 01:46:40;;;;;;;;;;;;;;;3.19;93.16;103340.19;5073324;28;19940;-74
2022/02/28 01:49:06;;;;;;;;;;;;;;;3.23;93.19;103346.94;5066845;28;19916;-76
2022/02/28 01:51:33;;;;;;;;;;;;;;;3.25;93.14;103341.38;5074945;28;20003;-74
2022/02/28 01:53:58;;;;;;;;;;;;;;;3.26;93.13;103345.75;5089596;28;20435;-75
2022/02/28 01:56:23;;;;;;;;;;;;;;;3.29;92.94;103345.44;5064346;28;19956;-75
2022/02/28 01:58:48;;;;;;;;;;;;;;;3.32;93.25;103348.63;5064828;28;20350;-77
2022/02/28 02:01:14;;;;;;;;;;;;;;;3.34;93.11;103337.72;5070861;28;19912;-76
2022/02/28 02:03:39;;;;;;;;;;;;;;;3.34;93.01;103335.84;5061122;28;19971;-75
2022/02/28 02:06:09;;;;;;;;;;;;;;;3.32;92.94;103334.31;5057088;28;19921;-76
2022/02/28 02:08:35;;;;;;;;;;;;;;;3.35;92.85;103328.59;5059864;28;20290;-75
2022/02/28 02:11:00;;;;;;;;;;;;;;;3.32;92.80;103323.53;5095229;28;19920;-76
2022/02/28 02:13:26;;;;;;;;;;;;;;;3.30;92.61;103325.53;5067246;28;19940;-75
2022/02/28 02:15:51;;;;;;;;;;;;;;;3.28;92.81;103322.19;5099201;28;19959;-76
2022/02/28 02:18:16;;;;;;;;;;;;;;;3.26;93.00;103316.09;5099930;28;19917;-76
2022/02/28 02:20:43;;;;;;;;;;;;;;;3.25;92.64;103315.28;5054123;28;19912;-76
2022/02/28 02:23:11;;;;;;;;;;;;;;;3.26;92.96;103322.34;5070618;28;19912;-75
2022/02/28 02:25:36;;;;;;;;;;;;;;;3.30;92.72;103320.16;5095017;28;19970;-75
2022/02/28 02:28:02;;;;;;;;;;;;;;;3.28;92.46;103317.63;5059305;28;19920;-75
2022/02/28 02:30:27;;;;;;;;;;;;;;;3.29;92.54;103313.06;5058954;28;19923;-73
2022/02/28 02:32:53;;;;;;;;;;;;;;;3.30;92.53;103304.84;5074062;28;19913;-73
2022/02/28 02:35:18;;;;;;;;;;;;;;;3.30;92.87;103310.22;5070533;28;19959;-73
2022/02/28 02:37:43;;;;;;;;;;;;;;;3.31;92.87;103308.38;5106705;28;20365;-75
2022/02/28 02:40:09;;;;;;;;;;;;;;;3.30;92.95;103304.84;5101644;28;19988;-75
2022/02/28 02:42:34;;;;;;;;;;;;;;;3.29;92.89;103305.00;5074239;28;19912;-75
2022/02/28 02:44:59;;;;;;;;;;;;;;;3.29;93.18;103302.28;5100485;28;19920;-75
2022/02/28 02:47:24;;;;;;;;;;;;;;;3.27;93.20;103297.09;5073757;28;20253;-75
2022/02/28 02:49:50;;;;;;;;;;;;;;;3.29;92.74;103303.13;5086905;28;19983;-75
2022/02/28 02:52:15;;;;;;;;;;;;;;;3.31;92.86;103294.91;5071385;28;19912;-75
2022/02/28 02:54:40;;;;;;;;;;;;;;;3.30;93.28;103288.66;5064629;28;19998;-75
2022/02/28 02:57:05;;;;;;;;;;;;;;;3.30;93.09;103293.19;5106294;28;19916;-74
2022/02/28 02:59:31;;;;;;;;;;;;;;;3.29;92.82;103286.94;5063690;28;20012;-76
2022/02/28 03:01:56;;;;;;;;;;;;;;;3.31;92.81;103290.34;5099761;28;19932;-75
2022/02/28 03:04:21;;;;;;;;;;;;;;;3.31;92.60;103290.34;5044840;28;19917;-75
2022/02/28 03:06:47;;;;;;;;;;;;;;;3.31;92.75;103289.50;5106029;28;19924;-75
2022/02/28 03:09:12;;;;;;;;;;;;;;;3.29;92.58;103286.13;5062030;28;19923;-75
2022/02/28 03:11:38;;;;;;;;;;;;;;;3.29;92.55;103291.50;5071182;28;19912;-75
2022/02/28 03:14:03;;;;;;;;;;;;;;;3.27;92.54;103282.72;5057528;28;20449;-75
2022/02/28 03:16:29;;;;;;;;;;;;;;;3.26;92.73;103286.44;5067221;28;19912;-75
2022/02/28 03:18:54;;;;;;;;;;;;;;;3.26;92.80;103286.44;5060727;28;20004;-75
2022/02/28 03:21:19;;;;;;;;;;;;;;;3.24;92.97;103285.75;5053026;28;19956;-75
2022/02/28 03:23:44;;;;;;;;;;;;;;;3.23;93.03;103287.63;5064444;28;19917;-75
2022/02/28 03:26:10;;;;;;;;;;;;;;;3.19;93.01;103285.41;5057848;28;19916;-75
2022/02/28 03:28:35;;;;;;;;;;;;;;;3.17;92.67;103290.13;5099748;28;20330;-75
2022/02/28 03:31:00;;;;;;;;;;;;;;;3.17;93.14;103284.75;5054535;28;19917;-75
2022/02/28 03:33:25;;;;;;;;;;;;;;;3.18;93.32;103275.63;5069555;28;19920;-75
2022/02/28 03:35:50;;;;;;;;;;;;;;;3.21;92.96;103291.47;5042771;28;19948;-75
2022/02/28 03:38:16;;;;;;;;;;;;;;;3.20;92.77;103279.03;5077279;28;19936;-75
2022/02/28 03:40:41;;;;;;;;;;;;;;;3.18;93.25;103278.34;5050636;28;20380;-76
2022/02/28 03:43:06;;;;;;;;;;;;;;;3.17;93.08;103277.50;5065510;28;19966;-74
2022/02/28 03:45:32;;;;;;;;;;;;;;;3.19;93.41;103272.78;5045831;28;19924;-73
2022/02/28 03:47:57;;;;;;;;;;;;;;;3.20;93.57;103271.78;5077178;28;19912;-73
2022/02/28 03:50:24;;;;;;;;;;;;;;;3.22;93.53;103280.53;5061407;28;19917;-73
2022/02/28 03:52:50;;;;;;;;;;;;;;;3.20;93.15;103271.78;5073737;28;19917;-74
2022/02/28 03:55:15;;;;;;;;;;;;;;;3.20;93.16;103265.53;5074667;28;19916;-73
2022/02/28 03:57:40;;;;;;;;;;;;;;;3.17;93.45;103266.72;5076927;28;19912;-73
2022/02/28 04:00:06;;;;;;;;;;;;;;;3.17;93.52;103276.66;5065345;28;19962;-74
2022/02/28 04:02:31;;;;;;;;;;;;;;;3.14;93.46;103268.88;5077075;28;19917;-75
2022/02/28 04:04:56;;;;;;;;;;;;;;;3.10;93.85;103266.50;5063819;28;20362;-74
2022/02/28 04:07:21;;;;;;;;;;;;;;;3.09;94.18;103259.44;5068745;28;20365;-74
2022/02/28 04:09:47;;;;;;;;;;;;;;;3.13;94.00;103251.00;5062232;28;19916;-74
2022/02/28 04:12:12;;;;;;;;;;;;;;;3.15;94.17;103251.72;5109344;28;20009;-74
2022/02/28 04:14:37;;;;;;;;;;;;;;;3.15;94.71;103240.91;5061812;28;19917;-74
2022/02/28 04:17:03;;;;;;;;;;;;;;;3.16;94.61;103242.59;5076695;28;20391;-74
2022/02/28 04:19:28;;;;;;;;;;;;;;;3.18;94.67;103235.19;5067934;28;20437;-74
2022/02/28 04:21:53;;;;;;;;;;;;;;;3.19;94.88;103236.88;5056331;28;19913;-74
2022/02/28 04:24:19;;;;;;;;;;;;;;;3.19;94.94;103236.88;5053846;28;19921;-74
2022/02/28 04:26:44;;;;;;;;;;;;;;;3.20;94.99;103238.59;5071396;28;19916;-74
2022/02/28 04:29:10;;;;;;;;;;;;;;;3.19;95.33;103237.75;5071052;28;20020;-74
2022/02/28 04:31:35;;;;;;;;;;;;;;;3.19;95.14;103234.19;5071877;28;20365;-74
2022/02/28 04:34:00;;;;;;;;;;;;;;;3.20;95.38;103227.81;5071902;28;19920;-74
2022/02/28 04:36:25;;;;;;;;;;;;;;;3.19;95.75;103226.97;5068355;28;19912;-74
2022/02/28 04:38:51;;;;;;;;;;;;;;;3.18;95.38;103224.41;5073252;28;19912;-74
2022/02/28 04:41:16;;;;;;;;;;;;;;;3.18;95.71;103236.03;5047417;28;19913;-74
2022/02/28 04:43:41;;;;;;;;;;;;;;;3.20;95.46;103222.41;5073093;28;19965;-74
2022/02/28 04:46:06;;;;;;;;;;;;;;;3.20;95.67;103217.00;5069217;28;20007;-73
2022/02/28 04:48:32;;;;;;;;;;;;;;;3.21;95.54;103216.84;5070007;28;19917;-74
2022/02/28 04:50:57;;;;;;;;;;;;;;;3.20;95.58;103217.84;5057142;28;20374;-74
2022/02/28 04:53:23;;;;;;;;;;;;;;;3.22;95.54;103212.28;5066496;28;19916;-74
2022/02/28 04:55:48;;;;;;;;;;;;;;;3.21;96.13;103213.31;5059752;28;19940;-74
2022/02/28 04:58:14;;;;;;;;;;;;;;;3.21;95.89;103213.31;5068925;28;19927;-74
2022/02/28 05:00:39;;;;;;;;;;;;;;;3.24;96.05;103210.28;5100307;28;19916;-74
2022/02/28 05:03:04;;;;;;;;;;;;;;;3.24;96.19;103199.47;5075715;28;19913;-74
2022/02/28 05:05:29;;;;;;;;;;;;;;;3.25;96.16;103201.19;5068769;28;20329;-74
2022/02/28 05:07:55;;;;;;;;;;;;;;;3.22;95.82;103205.06;5073172;28;19919;-74
2022/02/28 05:10:20;;;;;;;;;;;;;;;3.22;96.38;103214.97;5059995;28;19917;-74
2022/02/28 05:12:45;;;;;;;;;;;;;;;3.25;96.48;103206.59;5075875;28;20320;-74
2022/02/28 05:15:10;;;;;;;;;;;;;;;3.26;96.34;103205.56;5063650;28;20306;-74
2022/02/28 05:17:37;;;;;;;;;;;;;;;3.29;96.11;103216.00;5066929;28;20332;-74
2022/02/28 05:20:02;;;;;;;;;;;;;;;3.30;96.63;103206.91;5059626;28;19920;-74
2022/02/28 05:22:27;;;;;;;;;;;;;;;3.32;96.26;103204.88;5065921;28;20297;-74
2022/02/28 05:24:52;;;;;;;;;;;;;;;3.31;96.14;103209.44;5068268;28;19917;-74
2022/02/28 05:27:17;;;;;;;;;;;;;;;3.30;96.20;103198.81;5075061;28;19917;-74
2022/02/28 05:29:43;;;;;;;;;;;;;;;3.29;96.30;103202.53;5061769;28;20053;-74
2022/02/28 05:32:08;;;;;;;;;;;;;;;3.29;96.92;103199.84;5107636;28;19916;-74
2022/02/28 05:34:33;;;;;;;;;;;;;;;3.25;96.42;103199.34;5064464;28;19917;-74
2022/02/28 05:36:58;;;;;;;;;;;;;;;3.20;96.58;103201.69;5070657;28;19916;-73
2022/02/28 05:39:24;;;;;;;;;;;;;;;3.15;97.02;103201.31;5070542;28;19916;-74
2022/02/28 05:41:49;;;;;;;;;;;;;;;3.14;96.46;103209.56;5055652;28;20370;-74
2022/02/28 05:44:14;;;;;;;;;;;;;;;3.14;96.81;103201.47;5070343;28;20381;-74
2022/02/28 05:46:39;;;;;;;;;;;;;;;3.16;97.21;103200.31;5061780;28;20358;-74
2022/02/28 05:49:05;;;;;;;;;;;;;;;3.17;96.86;103203.88;5072956;28;20532;-74
2022/02/28 05:51:31;;;;;;;;;;;;;;;3.18;97.26;103194.75;5057774;28;20357;-74
2022/02/28 05:53:57;;;;;;;;;;;;;;;3.18;96.86;103197.47;5059482;28;20038;-74
2022/02/28 05:56:22;;;;;;;;;;;;;;;3.18;96.87;103201.00;5072601;28;19952;-74
2022/02/28 05:58:47;;;;;;;;;;;;;;;3.19;97.53;103205.41;5064613;28;20262;-74
2022/02/28 06:01:12;;;;;;;;;;;;;;;3.21;97.30;103197.13;5072941;28;19916;-74
2022/02/28 06:03:38;;;;;;;;;;;;;;;3.21;97.55;103207.91;5074991;28;19913;-74
2022/02/28 06:06:03;;;;;;;;;;;;;;;3.21;97.57;103202.50;5063206;28;20473;-74
2022/02/28 06:08:28;;;;;;;;;;;;;;;3.22;97.27;103188.00;5067620;28;20396;-74
2022/02/28 06:10:54;;;;;;;;;;;;;;;3.23;97.08;103205.91;5066766;28;19916;-74
2022/02/28 06:13:19;;;;;;;;;;;;;;;3.23;97.41;103209.44;5074212;28;19916;-74
2022/02/28 06:15:44;;;;;;;;;;;;;;;3.25;97.51;103203.88;5071317;28;20014;-74
2022/02/28 06:18:10;;;;;;;;;;;;;;;3.26;97.46;103205.56;5107340;28;19965;-75
2022/02/28 06:20:39;;;;;;;;;;;;;;;3.28;97.34;103208.94;5070342;28;20365;-74
2022/02/28 06:23:05;;;;;;;;;;;;;;;3.27;97.37;103202.72;5073934;28;19913;-74
2022/02/28 06:25:30;;;;;;;;;;;;;;;3.29;97.32;103210.63;5098958;28;19923;-74
2022/02/28 06:27:55;;;;;;;;;;;;;;;3.29;97.51;103200.66;5054963;28;19921;-74
2022/02/28 06:30:20;;;;;;;;;;;;;;;3.30;97.22;103197.00;5096140;28;19960;-74
2022/02/28 06:32:46;;;;;;;;;;;;;;;3.31;97.54;103208.63;5074138;28;19912;-74
2022/02/28 06:35:11;;;;;;;;;;;;;;;3.32;97.31;103204.88;5064070;28;19916;-74
2022/02/28 06:37:37;;;;;;;;;;;;;;;3.31;97.17;103205.91;5074116;28;19975;-74
2022/02/28 06:40:02;;;;;;;;;;;;;;;3.28;96.97;103204.38;5100135;28;20274;-74
2022/02/28 06:42:27;;;;;;;;;;;;;;;3.25;97.29;103202.03;5078644;28;19919;-73
2022/02/28 06:44:53;;;;;;;;;;;;;;;3.23;97.39;103197.81;5068315;28;19924;-74
2022/02/28 06:47:18;;;;;;;;;;;;;;;3.19;97.08;103201.84;5072050;28;19916;-74
2022/02/28 06:49:43;;;;;;;;;;;;;;;3.15;97.39;103197.78;5065631;28;19921;-75
2022/02/28 06:52:08;;;;;;;;;;;;;;;3.15;96.92;103205.88;5066824;28;19924;-75
2022/02/28 06:54:33;;;;;;;;;;;;;;;3.15;97.34;103208.56;5070466;28;19912;-74
2022/02/28 06:56:59;;;;;;;;;;;;;;;3.16;97.50;103202.16;5067952;28;19967;-74
2022/02/28 06:59:24;;;;;;;;;;;;;;;3.19;97.35;103209.91;5064420;28;19942;-74
2022/02/28 07:01:49;;;;;;;;;;;;;;;3.20;97.35;103204.38;5050645;28;19912;-75
2022/02/28 07:04:14;;;;;;;;;;;;;;;3.22;97.38;103193.41;5073442;28;20266;-75
2022/02/28 07:06:40;;;;;;;;;;;;;;;3.23;97.23;103201.34;5060051;28;20273;-75
2022/02/28 07:09:05;;;;;;;;;;;;;;;3.25;96.95;103209.28;5073368;28;20346;-75
2022/02/28 07:11:30;;;;;;;;;;;;;;;3.26;96.95;103209.09;5079171;28;19923;-75
2022/02/28 07:13:56;;;;;;;;;;;;;;;3.28;97.10;103211.66;5063492;28;20023;-75
2022/02/28 07:16:21;;;;;;;;;;;;;;;3.28;96.88;103211.66;5039907;28;19991;-76
2022/02/28 07:18:46;;;;;;;;;;;;;;;3.30;96.99;103212.28;5061313;28;20381;-75
2022/02/28 07:21:11;;;;;;;;;;;;;;;3.32;96.61;103204.88;5045264;28;20393;-74
2022/02/28 07:23:36;;;;;;;;;;;;;;;3.31;96.82;103217.53;5072850;28;20042;-74
2022/02/28 07:26:02;;;;;;;;;;;;;;;3.33;96.44;103222.78;5057419;28;19979;-74
2022/02/28 07:28:27;;;;;;;;;;;;;;;3.34;96.73;103224.44;5057152;28;19913;-74
2022/02/28 07:30:52;;;;;;;;;;;;;;;3.34;96.65;103219.06;5071103;28;19913;-74
2022/02/28 07:33:18;;;;;;;;;;;;;;;3.36;96.25;103222.44;5068742;28;19913;-74
2022/02/28 07:35:43;;;;;;;;;;;;;;;3.35;96.43;103220.72;5072995;28;19927;-73
2022/02/28 07:38:09;;;;;;;;;;;;;;;3.34;96.41;103227.16;5073101;28;19983;-73
2022/02/28 07:40:34;;;;;;;;;;;;;;;3.35;96.05;103236.91;5071218;28;19983;-73
2022/02/28 07:42:59;;;;;;;;;;;;;;;3.34;95.82;103229.84;5061987;28;19913;-74
2022/02/28 07:45:24;;;;;;;;;;;;;;;3.35;96.17;103228.81;5066190;28;19924;-74
2022/02/28 07:47:50;;;;;;;;;;;;;;;3.36;95.70;103235.91;5073336;28;20010;-74
2022/02/28 07:50:15;;;;;;;;;;;;;;;3.37;95.95;103231.38;5097944;28;19917;-74
2022/02/28 07:52:40;;;;;;;;;;;;;;;3.40;96.23;103231.03;5073183;28;20370;-74
2022/02/28 07:55:07;;;;;;;;;;;;;;;3.41;95.94;103225.50;5065181;28;20365;-73
2022/02/28 07:57:32;;;;;;;;;;;;;;;3.44;96.12;103224.31;5071110;28;19912;-73
2022/02/28 07:59:57;;;;;;;;;;;;;;;3.43;95.32;103223.44;5096910;28;19921;-74
2022/02/28 08:02:23;;;;;;;;;;;;;;;3.39;95.43;103226.66;5081797;28;19912;-73
2022/02/28 08:04:48;;;;;;;;;;;;;;;3.38;95.60;103231.19;5072014;28;20384;-74
2022/02/28 08:07:14;;;;;;;;;;;;;;;3.39;95.06;103222.09;5043319;28;19921;-74
2022/02/28 08:09:39;;;;;;;;;;;;;;;3.44;95.47;103225.16;5069868;28;19970;-74
2022/02/28 08:12:04;;;;;;;;;;;;;;;3.45;95.33;103221.44;5060765;28;19923;-74
2022/02/28 08:14:29;;;;;;;;;;;;;;;3.48;95.23;103231.06;5072947;28;19917;-74
2022/02/28 08:16:55;;;;;;;;;;;;;;;3.43;94.83;103217.22;5044525;28;20476;-73
2022/02/28 08:19:20;;;;;;;;;;;;;;;3.36;94.38;103217.06;5065218;28;19921;-74
2022/02/28 08:21:45;;;;;;;;;;;;;;;3.31;94.60;103224.78;5057251;28;19996;-74
2022/02/28 08:24:10;;;;;;;;;;;;;;;3.30;94.72;103215.84;5099643;28;19959;-74
2022/02/28 08:26:36;;;;;;;;;;;;;;;3.30;95.04;103212.28;5084675;28;19921;-73
2022/02/28 08:29:01;;;;;;;;;;;;;;;3.30;94.57;103215.00;5076442;28;20502;-73
2022/02/28 08:31:26;;;;;;;;;;;;;;;3.30;94.65;103213.16;5090145;28;20274;-74
2022/02/28 08:33:51;;;;;;;;;;;;;;;3.32;94.38;103221.91;5076643;28;20331;-74
2022/02/28 08:36:17;;;;;;;;;;;;;;;3.34;94.55;103219.06;5085947;28;19924;-74
2022/02/28 08:38:42;;;;;;;;;;;;;;;3.34;94.16;103213.66;5071944;28;19913;-75
2022/02/28 08:41:08;;;;;;;;;;;;;;;3.35;94.09;103207.25;5056666;28;19983;-74
2022/02/28 08:43:33;;;;;;;;;;;;;;;3.37;94.27;103205.25;5067821;28;19919;-74
2022/02/28 08:45:59;;;;;;;;;;;;;;;3.39;93.73;103213.19;5099598;28;19924;-74
2022/02/28 08:48:25;;;;;;;;;;;;;;;3.45;93.81;103215.19;5070077;28;19913;-74
2022/02/28 08:50:50;;;;;;;;;;;;;;;3.50;94.09;103207.47;5105855;28;19916;-74
2022/02/28 08:53:15;;;;;;;;;;;;;;;3.50;93.59;103218.25;5064488;28;19999;-74
2022/02/28 08:55:40;;;;;;;;;;;;;;;3.49;93.53;103220.09;5069637;28;20255;-73
2022/02/28 08:58:06;;;;;;;;;;;;;;;3.51;93.66;103220.75;5108538;28;20337;-74
2022/02/28 09:00:31;;;;;;;;;;;;;;;3.53;93.29;103218.75;5071257;28;20405;-73
2022/02/28 09:02:56;;;;;;;;;;;;;;;3.53;92.68;103207.97;5060554;28;20378;-75
2022/02/28 09:05:21;;;;;;;;;;;;;;;3.51;92.76;103219.91;5070975;28;19912;-75
2022/02/28 09:07:47;;;;;;;;;;;;;;;3.56;92.48;103223.81;5052697;28;19917;-75
2022/02/28 09:10:12;;;;;;;;;;;;;;;3.56;92.22;103215.72;5106455;28;19912;-75
2022/02/28 09:12:37;;;;;;;;;;;;;;;3.59;92.30;103227.19;5068895;28;19919;-73
2022/02/28 09:15:03;;;;;;;;;;;;;;;3.58;91.74;103201.22;5075444;28;19920;-74
2022/02/28 09:17:30;;;;;;;;;;;;;;;3.56;91.76;103218.41;5041129;28;19917;-74
2022/02/28 09:19:56;;;;;;;;;;;;;;;3.59;91.66;103216.41;5070445;28;19928;-75
2022/02/28 09:22:21;;;;;;;;;;;;;;;3.62;91.43;103221.44;5057311;28;19916;-74
2022/02/28 09:24:46;;;;;;;;;;;;;;;3.64;91.50;103232.94;5108273;28;19919;-74
2022/02/28 09:27:11;;;;;;;;;;;;;;;3.62;91.21;103221.44;5097266;28;19927;-74
2022/02/28 09:29:36;;;;;;;;;;;;;;;3.63;90.80;103242.00;5075279;28;19947;-74
2022/02/28 09:32:03;;;;;;;;;;;;;;;3.63;90.50;103234.78;5063887;28;19916;-74
2022/02/28 09:34:28;;;;;;;;;;;;;;;3.63;90.69;103225.81;5087711;28;19924;-74
2022/02/28 09:36:54;;;;;;;;;;;;;;;3.60;90.29;103218.94;5047823;28;19916;-74
2022/02/28 09:39:19;;;;;;;;;;;;;;;3.64;90.54;103219.44;5075201;28;19923;-74
2022/02/28 09:41:44;;;;;;;;;;;;;;;3.63;90.50;103223.13;5084506;28;19917;-74
2022/02/28 09:44:11;;;;;;;;;;;;;;;3.67;90.51;103227.19;5075152;28;20007;-74
2022/02/28 09:46:36;;;;;;;;;;;;;;;3.67;90.57;103240.69;5058885;28;19920;-74
2022/02/28 09:49:02;;;;;;;;;;;;;;;3.70;90.18;103230.38;5106609;28;20069;-75
2022/02/28 09:51:27;;;;;;;;;;;;;;;3.73;90.34;103237.31;5056426;28;19956;-74
2022/02/28 09:53:54;;;;;;;;;;;;;;;3.72;90.12;103233.78;5054553;28;19920;-74
2022/02/28 09:56:21;;;;;;;;;;;;;;;3.73;90.31;103223.81;5066200;28;20246;-74
2022/02/28 09:58:46;;;;;;;;;;;;;;;3.73;89.67;103231.91;5081392;28;19919;-74
2022/02/28 10:01:12;;;;;;;;;;;;;;;3.77;89.86;103241.38;5068903;28;19916;-74
2022/02/28 10:03:37;;;;;;;;;;;;;;;3.78;89.96;103248.44;5093412;28;19917;-74
2022/02/28 10:06:02;;;;;;;;;;;;;;;3.83;90.01;103235.28;5059967;28;20019;-74
2022/02/28 10:08:32;;;;;;;;;;;;;;;3.84;89.76;103236.13;5092875;28;19923;-75
2022/02/28 10:10:57;;;;;;;;;;;;;;;3.86;89.87;103240.34;5098926;28;19924;-74
2022/02/28 10:13:28;;;;;;;;;;;;;;;3.85;89.80;103227.88;5089101;28;19913;-74
2022/02/28 10:15:54;;;;;;;;;;;;;;;3.91;90.16;103235.28;5070022;28;19925;-73
2022/02/28 10:18:20;;;;;;;;;;;;;;;3.92;89.76;103234.25;5072238;28;19917;-73
2022/02/28 10:20:45;;;;;;;;;;;;;;;3.89;89.70;103233.78;5070763;28;19920;-74
2022/02/28 10:23:12;;;;;;;;;;;;;;;3.94;90.13;103243.03;5050963;28;19913;-74
2022/02/28 10:25:41;;;;;;;;;;;;;;;4.00;90.10;103234.25;5073004;28;20385;-74
2022/02/28 10:28:18;;;;;;;;;;;;;;;3.99;90.16;103235.28;5063967;28;19921;-74
2022/02/28 10:30:52;;;;;;;;;;;;;;;4.07;90.22;103241.72;5060099;28;19935;-74
2022/02/28 10:33:18;;;;;;;;;;;;;;;4.11;90.35;103246.56;5061434;28;19979;-74
2022/02/28 10:36:09;;;;;;;;;;;;;;;4.18;90.17;103254.84;5053612;28;19935;-73
2022/02/28 10:38:34;;;;;;;;;;;;;;;4.21;90.29;103241.00;5069603;28;19933;-74
2022/02/28 10:41:00;;;;;;;;;;;;;;;4.30;90.16;103258.03;5069455;28;19924;-74
2022/02/28 10:43:30;;;;;;;;;;;;;;;4.29;90.05;103249.09;5068484;28;20382;-74
2022/02/28 10:45:56;;;;;;;;;;;;;;;4.36;89.80;103241.13;5070471;28;19913;-74
2022/02/28 10:48:21;;;;;;;;;;;;;;;4.33;89.72;103242.31;5067394;28;19912;-74
2022/02/28 10:50:46;;;;;;;;;;;;;;;4.39;89.86;103244.34;5072438;28;20378;-73
2022/02/28 10:53:15;;;;;;;;;;;;;;;4.46;89.73;103241.81;5063843;28;19912;-74
2022/02/28 10:55:41;;;;;;;;;;;;;;;4.52;89.54;103259.19;5073418;28;19913;-74
2022/02/28 10:58:16;;;;;;;;;;;;;;;4.49;89.06;103246.03;5085859;28;19922;-74
2022/02/28 11:00:50;;;;;;;;;;;;;;;4.55;89.26;103256.13;5073987;28;19919;-74
2022/02/28 11:03:16;;;;;;;;;;;;;;;4.62;89.00;103241.75;5059889;28;19917;-73
2022/02/28 11:05:50;;;;;;;;;;;;;;;4.72;88.96;103248.81;5064970;28;20391;-74
2022/02/28 11:08:21;;;;;;;;;;;;;;;4.72;88.49;103246.97;5072495;28;19921;-73
2022/02/28 11:10:47;;;;;;;;;;;;;;;4.71;88.47;103237.16;5073521;28;19913;-74
2022/02/28 11:13:12;;;;;;;;;;;;;;;4.82;88.47;103236.78;5103423;28;20649;-74
2022/02/28 11:15:37;;;;;;;;;;;;;;;4.82;88.01;103236.78;5073829;28;20392;-74
2022/02/28 11:18:03;;;;;;;;;;;;;;;4.92;87.65;103230.34;5057199;28;20378;-74
2022/02/28 11:20:28;;;;;;;;;;;;;;;4.87;86.99;103239.81;5073401;28;20362;-73
2022/02/28 11:22:53;;;;;;;;;;;;;;;4.91;87.12;103240.31;5067531;28;20377;-74
2022/02/28 11:25:19;;;;;;;;;;;;;;;4.96;86.90;103237.06;5073248;28;19916;-73
2022/02/28 11:27:45;;;;;;;;;;;;;;;4.97;86.55;103234.19;5065874;28;19920;-74
2022/02/28 11:30:11;;;;;;;;;;;;;;;4.94;86.25;103230.97;5059604;28;19937;-74
2022/02/28 11:32:36;;;;;;;;;;;;;;;4.90;86.09;103231.34;5097477;28;20323;-74
2022/02/28 11:35:21;;;;;;;;;;;;;;;4.99;86.35;103228.59;5106202;28;19958;-74
2022/02/28 11:37:46;;;;;;;;;;;;;;;5.08;85.93;103224.84;5061107;28;19916;-74
2022/02/28 11:40:11;;;;;;;;;;;;;;;5.11;85.65;103224.50;5073114;28;19912;-74
2022/02/28 11:42:55;;;;;;;;;;;;;;;5.16;85.54;103222.09;5062031;28;19952;-75
2022/02/28 11:45:21;;;;;;;;;;;;;;;5.27;85.21;103218.16;5072964;28;20358;-75
2022/02/28 11:47:46;;;;;;;;;;;;;;;5.34;85.24;103222.66;5065758;28;19973;-76
2022/02/28 11:50:14;;;;;;;;;;;;;;;5.38;84.61;103225.03;5066291;28;19917;-75
2022/02/28 11:52:40;;;;;;;;;;;;;;;5.42;84.11;103218.22;5059316;28;19927;-76
2022/02/28 11:55:11;;;;;;;;;;;;;;;5.37;83.65;103228.72;5072247;28;19912;-74
2022/02/28 11:57:49;;;;;;;;;;;;;;;5.42;83.75;103193.84;5061853;28;20285;-74
2022/02/28 12:00:18;;;;;;;;;;;;;;;5.47;83.74;103211.22;5110231;28;19916;-75
2022/02/28 12:02:44;;;;;;;;;;;;;;;5.49;83.57;103208.38;5052357;28;20011;-74
2022/02/28 12:05:27;;;;;;;;;;;;;;;5.59;83.59;103208.94;5073054;28;19955;-74
2022/02/28 12:07:53;;;;;;;;;;;;;;;5.57;83.37;103197.47;5041622;28;20370;-74
2022/02/28 12:10:18;;;;;;;;;;;;;;;5.58;83.17;103204.56;5053490;28;19919;-74
2022/02/28 12:12:56;;;;;;;;;;;;;;;5.55;82.76;103221.16;5049869;28;20020;-74
2022/02/28 12:15:22;;;;;;;;;;;;;;;5.56;82.67;103210.19;5052506;28;19912;-74
2022/02/28 12:17:47;;;;;;;;;;;;;;;5.63;82.37;103202.16;5082080;28;19913;-74
2022/02/28 12:20:18;;;;;;;;;;;;;;;5.59;81.43;103183.75;5075773;28;19959;-74
2022/02/28 12:22:58;;;;;;;;;;;;;;;5.54;81.17;103198.69;5051347;28;19982;-75
2022/02/28 12:25:39;;;;;;;;;;;;;;;5.68;81.06;103207.88;5049007;28;20003;-74
2022/02/28 12:28:16;;;;;;;;;;;;;;;5.84;80.16;103192.50;5074278;28;19920;-75
2022/02/28 12:30:46;;;;;;;;;;;;;;;5.88;80.00;103178.41;5070451;28;20298;-74
2022/02/28 12:33:12;;;;;;;;;;;;;;;6.02;79.28;103187.63;5067426;28;19921;-75
2022/02/28 12:35:37;;;;;;;;;;;;;;;5.97;78.19;103182.78;5076549;28;19974;-74
2022/02/28 12:38:03;;;;;;;;;;;;;;;6.13;77.98;103197.16;5066538;28;19916;-75
2022/02/28 12:40:30;;;;;;;;;;;;;;;6.09;76.50;103180.47;5108765;28;19962;-75